Tignall, Georgia
Current Conditions -  °F | °C
As of 10:35 PM on Saturday 22 Nov 2014 (Local Time) from KIIY Reporting Station
Moderate Rain Moderate Rain  
Wind Chill: 13°   Ceiling: 4100
Heat Index: 13°   Visibility: 10mi
Dew Point:   Wind: 3mph
Humidity: 54%   Direction: 60°ENE
Pressure: 30.27"   Gusts: NA
Location:  33.87°N, 82.74°W
Report Text: KIIY 230335Z AUTO 06003KT 10SM RA BKN041 13/04 A3027 RMK AO2
Loading
Personal Weather Stations






























Interactive Weather Map New forecast layout! Learn more

10-Day Weather Forecast

Advertisements
Track Severe Weather on mobile